createdAt,value
2022-12-05T00:01:49.986Z,39.20
2022-12-05T00:04:18.139Z,36.22
2022-12-05T00:06:47.485Z,40.92
2022-12-05T00:09:15.967Z,39.33
2022-12-05T00:11:45.219Z,41.30
2022-12-05T00:14:14.144Z,39.67
2022-12-05T00:16:43.576Z,35.67
2022-12-05T00:19:15.618Z,42.78
2022-12-05T00:21:44.743Z,38.03
2022-12-05T00:24:16.736Z,34.78
2022-12-05T00:26:45.327Z,41.25
2022-12-05T00:29:13.842Z,35.40
2022-12-05T00:31:41.840Z,41.00
2022-12-05T00:34:14.643Z,33.05
2022-12-05T00:36:51.987Z,36.05
2022-12-05T00:39:29.229Z,33.15
2022-12-05T00:42:03.199Z,32.75
2022-12-05T00:44:32.501Z,30.77
2022-12-05T00:47:01.386Z,30.50
2022-12-05T00:49:34.383Z,32.22
2022-12-05T00:52:07.378Z,31.45
2022-12-05T00:54:36.677Z,32.42
2022-12-05T00:57:04.755Z,32.08
2022-12-05T00:59:32.720Z,33.03
2022-12-05T01:02:00.639Z,34.55
2022-12-05T01:04:28.977Z,33.05
2022-12-05T01:06:59.874Z,33.08
2022-12-05T01:09:28.173Z,29.23
2022-12-05T01:11:57.649Z,33.38
2022-12-05T01:14:27.000Z,31.88
2022-12-05T01:16:56.949Z,38.50
2022-12-05T01:19:28.651Z,39.10
2022-12-05T01:21:57.409Z,35.35
2022-12-05T01:24:26.912Z,39.38
2022-12-05T01:26:54.905Z,45.88
2022-12-05T01:29:25.516Z,39.80
2022-12-05T01:31:54.119Z,34.15
2022-12-05T01:34:23.926Z,42.40
2022-12-05T01:36:52.148Z,42.97
2022-12-05T01:39:20.280Z,41.75
2022-12-05T01:41:51.163Z,42.85
2022-12-05T01:44:56.459Z,46.45
2022-12-05T01:47:28.780Z,41.33
2022-12-05T01:49:58.557Z,55.78
2022-12-05T01:52:29.981Z,49.08
2022-12-05T01:55:03.598Z,51.25
2022-12-05T01:57:32.089Z,43.95
2022-12-05T02:00:03.318Z,44.17
2022-12-05T02:02:33.568Z,42.13
2022-12-05T02:05:05.958Z,45.70
2022-12-05T02:07:34.749Z,58.22
2022-12-05T02:10:02.682Z,48.17
2022-12-05T02:12:30.715Z,48.05
2022-12-05T02:15:09.003Z,53.40
2022-12-05T02:17:47.614Z,56.22
2022-12-05T02:20:27.716Z,46.25
2022-12-05T02:23:49.255Z,47.15
2022-12-05T02:26:38.976Z,50.53
2022-12-05T02:29:34.682Z,47.40
2022-12-05T02:32:11.524Z,48.80
2022-12-05T02:34:46.161Z,45.33
2022-12-05T02:37:17.713Z,53.92
2022-12-05T02:39:52.713Z,46.05
2022-12-05T02:42:25.490Z,46.35
2022-12-05T02:44:57.373Z,45.70
2022-12-05T02:47:30.569Z,47.65
2022-12-05T02:49:59.727Z,45.55
2022-12-05T02:52:31.209Z,52.80
2022-12-05T02:55:00.270Z,46.53
2022-12-05T02:57:28.632Z,52.03
2022-12-05T02:59:56.858Z,48.10
2022-12-05T03:02:29.511Z,44.40
2022-12-05T03:04:59.417Z,49.63
2022-12-05T03:07:30.608Z,49.63
2022-12-05T03:10:03.702Z,46.40
2022-12-05T03:12:34.698Z,45.72
2022-12-05T03:15:06.251Z,46.63
2022-12-05T03:17:41.901Z,40.50
2022-12-05T03:20:16.680Z,40.45
2022-12-05T03:22:50.538Z,40.20
2022-12-05T03:25:19.193Z,40.95
2022-12-05T03:27:52.681Z,39.72
2022-12-05T03:30:23.094Z,43.50
2022-12-05T03:32:55.968Z,37.17
2022-12-05T03:35:30.154Z,44.95
2022-12-05T03:38:02.446Z,36.80
2022-12-05T03:40:35.685Z,32.90
2022-12-05T03:43:10.389Z,41.45
2022-12-05T03:45:45.686Z,42.72
2022-12-05T03:48:22.336Z,33.75
2022-12-05T03:50:53.897Z,36.53
2022-12-05T03:53:26.017Z,39.95
2022-12-05T03:56:01.131Z,35.83
2022-12-05T03:58:34.194Z,36.92
2022-12-05T04:01:05.878Z,34.38
2022-12-05T04:03:40.772Z,35.25
2022-12-05T04:06:16.922Z,45.20
2022-12-05T04:08:53.324Z,37.38
2022-12-05T04:11:24.729Z,38.80
2022-12-05T04:13:55.891Z,38.97
2022-12-05T04:16:45.060Z,40.33
2022-12-05T04:19:20.191Z,35.35
2022-12-05T04:21:50.041Z,36.88
2022-12-05T04:24:38.167Z,32.88
2022-12-05T04:27:21.291Z,38.60
2022-12-05T04:29:58.279Z,37.45
2022-12-05T04:32:31.403Z,37.23
2022-12-05T04:35:07.413Z,33.95
2022-12-05T04:37:38.427Z,35.45
2022-12-05T04:40:11.744Z,31.48
2022-12-05T04:42:42.637Z,38.67
2022-12-05T04:45:14.064Z,33.70
2022-12-05T04:47:45.774Z,31.55
2022-12-05T04:50:16.925Z,33.08
2022-12-05T04:52:48.872Z,27.92
2022-12-05T04:55:25.684Z,30.20
2022-12-05T04:58:03.957Z,28.70
2022-12-05T05:00:34.979Z,24.35
2022-12-05T05:03:08.357Z,28.45
2022-12-05T05:05:39.801Z,29.63
2022-12-05T05:08:18.690Z,25.05
2022-12-05T05:10:56.002Z,26.23
2022-12-05T05:13:23.963Z,24.63
2022-12-05T05:15:51.890Z,23.92
2022-12-05T05:18:19.845Z,23.52
2022-12-05T05:20:49.142Z,23.95
2022-12-05T05:23:17.042Z,22.75
2022-12-05T05:25:45.081Z,24.92
2022-12-05T05:28:12.998Z,23.25
2022-12-05T05:30:40.994Z,21.40
2022-12-05T05:33:08.976Z,22.48
2022-12-05T05:35:37.726Z,22.55
2022-12-05T05:38:07.055Z,24.85
2022-12-05T05:40:37.471Z,21.92
2022-12-05T05:43:05.877Z,22.90
2022-12-05T05:45:33.839Z,22.92
2022-12-05T05:48:01.773Z,21.48
2022-12-05T05:50:29.902Z,22.42
2022-12-05T05:52:57.935Z,22.40
2022-12-05T05:55:27.395Z,22.48
2022-12-05T05:57:55.422Z,23.67
2022-12-05T06:00:23.868Z,24.48
2022-12-05T06:02:51.992Z,24.50
2022-12-05T06:05:20.235Z,20.85
2022-12-05T06:07:48.274Z,22.90
2022-12-05T06:10:16.551Z,20.35
2022-12-05T06:12:45.841Z,22.38
2022-12-05T06:15:13.859Z,20.80
2022-12-05T06:17:41.915Z,17.92
2022-12-05T06:20:10.595Z,24.88
2022-12-05T06:22:38.598Z,20.10
2022-12-05T06:25:07.835Z,20.20
2022-12-05T06:27:36.019Z,23.00
2022-12-05T06:30:06.391Z,19.40
2022-12-05T06:32:34.304Z,21.10
2022-12-05T06:35:07.798Z,17.60
2022-12-05T06:37:37.597Z,20.13
2022-12-05T06:40:06.894Z,19.63
2022-12-05T06:42:34.816Z,20.73
2022-12-05T06:45:05.362Z,19.00
2022-12-05T06:47:33.228Z,18.63
2022-12-05T06:50:01.155Z,20.30
2022-12-05T06:52:29.052Z,18.58
2022-12-05T06:54:57.000Z,20.80
2022-12-05T06:57:24.881Z,16.25
2022-12-05T07:00:12.797Z,20.08
2022-12-05T07:02:41.955Z,19.33
2022-12-05T07:05:10.618Z,20.98
2022-12-05T07:07:38.834Z,19.38
2022-12-05T07:10:08.325Z,21.17
2022-12-05T07:12:36.561Z,22.60
2022-12-05T07:15:05.232Z,17.63
2022-12-05T07:17:37.238Z,18.80
2022-12-05T07:20:08.061Z,14.70
2022-12-05T07:22:37.911Z,15.85
2022-12-05T07:25:06.544Z,19.95
2022-12-05T07:27:35.111Z,18.73
2022-12-05T07:30:03.183Z,19.08
2022-12-05T07:32:33.230Z,14.50
2022-12-05T07:35:01.457Z,17.33
2022-12-05T07:37:31.136Z,13.98
2022-12-05T07:39:59.297Z,14.18
2022-12-05T07:42:27.455Z,15.25
2022-12-05T07:44:55.402Z,17.58
2022-12-05T07:47:23.398Z,17.55
2022-12-05T07:49:51.343Z,14.95
2022-12-05T07:52:19.319Z,18.48
2022-12-05T07:54:48.570Z,14.45
2022-12-05T07:57:16.455Z,13.43
2022-12-05T07:59:44.373Z,18.10
2022-12-05T08:02:12.404Z,16.75
2022-12-05T08:04:40.411Z,14.02
2022-12-05T08:07:11.582Z,15.18
2022-12-05T08:09:39.829Z,17.50
2022-12-05T08:12:09.510Z,15.73
2022-12-05T08:14:37.637Z,16.55
2022-12-05T08:17:05.670Z,14.85
2022-12-05T08:19:33.677Z,15.20
2022-12-05T08:22:01.698Z,17.48
2022-12-05T08:24:29.699Z,16.60
2022-12-05T08:26:57.678Z,14.45
2022-12-05T08:29:27.061Z,16.02
2022-12-05T08:31:55.039Z,15.65
2022-12-05T08:34:23.064Z,17.70
2022-12-05T08:36:50.964Z,16.17
2022-12-05T08:39:20.899Z,18.02
2022-12-05T08:41:50.100Z,15.80
2022-12-05T08:44:18.619Z,15.73
2022-12-05T08:46:50.530Z,17.27
2022-12-05T08:49:19.675Z,14.57
2022-12-05T08:51:47.762Z,16.10
2022-12-05T08:54:16.528Z,15.00
2022-12-05T08:56:44.541Z,13.55
2022-12-05T08:59:12.727Z,13.77
2022-12-05T09:01:42.055Z,14.80
2022-12-05T09:04:12.293Z,13.80
2022-12-05T09:06:41.503Z,13.82
2022-12-05T09:09:11.861Z,13.70
2022-12-05T09:11:43.984Z,13.88
2022-12-05T09:14:11.904Z,16.63
2022-12-05T09:16:40.432Z,15.48
2022-12-05T09:19:13.832Z,14.18
2022-12-05T09:21:42.770Z,14.68
2022-12-05T09:24:12.829Z,13.75
2022-12-05T09:26:41.027Z,14.25
2022-12-05T09:29:15.791Z,12.65
2022-12-05T09:31:45.201Z,11.45
2022-12-05T09:34:15.229Z,14.27
2022-12-05T09:36:43.540Z,10.98
2022-12-05T09:39:11.948Z,12.02
2022-12-05T09:42:10.235Z,11.30
2022-12-05T09:44:53.704Z,11.02
2022-12-05T09:47:56.238Z,13.48
2022-12-05T09:50:28.717Z,11.43
2022-12-05T09:53:11.454Z,11.07
2022-12-05T09:55:50.334Z,11.27
2022-12-05T09:58:27.335Z,11.57
2022-12-05T10:01:03.006Z,10.30
2022-12-05T10:03:39.682Z,15.93
2022-12-05T10:06:16.215Z,9.57
2022-12-05T10:09:08.728Z,14.32
2022-12-05T10:11:42.997Z,9.88
2022-12-05T10:14:19.373Z,11.13
2022-12-05T10:16:50.711Z,11.10
2022-12-05T10:19:23.341Z,9.45
2022-12-05T10:21:58.884Z,11.68
2022-12-05T10:24:32.949Z,8.57
2022-12-05T10:27:05.291Z,8.35
2022-12-05T10:29:36.929Z,8.05
2022-12-05T10:32:12.097Z,8.02
2022-12-05T10:34:42.420Z,8.38
2022-12-05T10:37:16.936Z,9.48
2022-12-05T10:39:45.664Z,6.78
2022-12-05T10:42:17.433Z,8.32
2022-12-05T10:44:46.174Z,7.25
2022-12-05T10:47:15.167Z,9.43
2022-12-05T10:49:43.900Z,7.55
2022-12-05T10:52:14.439Z,6.55
2022-12-05T10:54:47.983Z,6.90
2022-12-05T10:57:24.467Z,5.65
2022-12-05T10:59:52.662Z,4.97
2022-12-05T11:02:25.854Z,6.40
2022-12-05T11:04:54.607Z,7.82
2022-12-05T11:07:31.813Z,5.43
2022-12-05T11:10:00.896Z,7.40
2022-12-05T11:12:31.447Z,5.65
2022-12-05T11:15:02.918Z,5.85
2022-12-05T11:17:36.002Z,10.93
2022-12-05T11:20:25.396Z,4.85
2022-12-05T11:22:58.106Z,8.00
2022-12-05T11:25:29.778Z,6.05
2022-12-05T11:28:01.407Z,5.03
2022-12-05T11:30:30.574Z,5.45
2022-12-05T11:33:13.340Z,5.57
2022-12-05T11:35:41.750Z,4.45
2022-12-05T11:38:13.359Z,6.32
2022-12-05T11:40:48.809Z,9.20
2022-12-05T11:43:36.911Z,5.55
2022-12-05T11:46:23.590Z,5.68
2022-12-05T11:49:08.699Z,5.95
2022-12-05T11:51:41.039Z,7.03
2022-12-05T11:55:03.948Z,5.07
2022-12-05T11:57:37.989Z,7.05
2022-12-05T12:00:22.099Z,5.22
2022-12-05T12:03:17.407Z,6.38
2022-12-05T12:05:57.753Z,4.28
2022-12-05T12:08:28.413Z,5.35
2022-12-05T12:11:08.952Z,6.18
2022-12-05T12:13:49.556Z,8.00
2022-12-05T12:16:22.359Z,5.30
2022-12-05T12:19:19.725Z,6.85
2022-12-05T12:22:03.560Z,5.15
2022-12-05T12:24:44.213Z,3.90
2022-12-05T12:27:20.817Z,4.03
2022-12-05T12:30:04.333Z,4.35
2022-12-05T12:32:44.690Z,4.43
2022-12-05T12:35:32.365Z,5.00
2022-12-05T12:38:25.784Z,4.53
2022-12-05T12:40:58.077Z,5.28
2022-12-05T12:43:53.743Z,6.72
2022-12-05T12:46:37.224Z,5.93
2022-12-05T12:49:31.791Z,4.75
2022-12-05T12:52:03.412Z,7.15
2022-12-05T12:55:13.969Z,6.05
2022-12-05T12:57:46.617Z,6.90
2022-12-05T13:00:24.803Z,5.88
2022-12-05T13:05:33.111Z,6.25
2022-12-05T13:08:05.932Z,5.47
2022-12-05T13:10:36.475Z,6.95
2022-12-05T13:13:07.003Z,9.15
2022-12-05T13:15:41.034Z,6.90
2022-12-05T13:18:15.990Z,6.63
2022-12-05T13:21:07.055Z,6.05
2022-12-05T13:23:47.403Z,5.88
2022-12-05T13:27:06.895Z,4.97
2022-12-05T13:29:41.913Z,5.50
2022-12-05T13:32:34.414Z,5.25
2022-12-05T13:35:12.303Z,5.20
2022-12-05T13:38:08.668Z,4.25
2022-12-05T13:41:00.574Z,7.10
2022-12-05T13:43:30.910Z,5.43
2022-12-05T13:46:10.384Z,5.20
2022-12-05T13:49:02.113Z,4.82
2022-12-05T13:51:40.910Z,4.85
2022-12-05T13:54:16.277Z,5.90
2022-12-05T13:56:53.918Z,7.72
2022-12-05T14:00:08.120Z,6.05
2022-12-05T14:02:58.178Z,7.80
2022-12-05T14:05:58.949Z,4.30
2022-12-05T14:12:53.053Z,3.63
2022-12-05T14:15:36.360Z,5.00
2022-12-05T14:18:16.645Z,3.33
2022-12-05T14:20:52.281Z,2.50
2022-12-05T14:23:41.131Z,6.28
2022-12-05T14:26:22.712Z,4.15
2022-12-05T14:29:28.050Z,2.50
2022-12-05T14:32:07.225Z,3.90
2022-12-05T14:34:38.540Z,3.63
2022-12-05T14:37:25.985Z,4.28
2022-12-05T14:40:03.072Z,3.40
2022-12-05T14:43:04.186Z,4.53
2022-12-05T14:45:36.890Z,5.32
2022-12-05T14:48:33.652Z,2.55
2022-12-05T14:51:08.045Z,2.65
2022-12-05T14:54:32.440Z,2.55
2022-12-05T14:57:13.320Z,3.97
2022-12-05T14:59:50.955Z,3.33
2022-12-05T15:02:31.536Z,3.35
2022-12-05T15:05:07.123Z,6.80
2022-12-05T15:07:38.422Z,3.85
2022-12-05T15:10:14.942Z,3.33
2022-12-05T15:12:48.449Z,3.50
2022-12-05T15:15:20.243Z,3.50
2022-12-05T15:17:50.632Z,3.45
2022-12-05T15:20:40.121Z,2.70
2022-12-05T15:23:39.186Z,3.30
2022-12-05T15:26:45.127Z,3.50
2022-12-05T15:29:08.176Z,4.03
2022-12-05T15:31:39.162Z,6.55
2022-12-05T15:34:14.546Z,5.70
2022-12-05T15:36:46.640Z,3.35
2022-12-05T15:39:23.566Z,7.18
2022-12-05T15:41:52.650Z,3.05
2022-12-05T15:44:27.259Z,4.85
2022-12-05T15:46:57.626Z,3.72
2022-12-05T15:49:27.186Z,5.35
2022-12-05T15:51:59.264Z,4.00
2022-12-05T15:54:33.215Z,3.47
2022-12-05T15:57:05.501Z,6.88
2022-12-05T15:59:39.947Z,5.13
2022-12-05T16:02:16.088Z,4.28
2022-12-05T16:04:48.713Z,5.20
2022-12-05T16:07:16.793Z,3.40
2022-12-05T16:09:47.362Z,3.45
2022-12-05T16:12:28.039Z,5.43
2022-12-05T16:15:01.955Z,4.45
2022-12-05T16:17:38.591Z,3.70
2022-12-05T16:20:22.543Z,5.53
2022-12-05T16:22:52.102Z,5.45
2022-12-05T16:25:25.472Z,5.43
2022-12-05T16:28:02.684Z,7.45
2022-12-05T16:30:32.765Z,7.17
2022-12-05T16:33:06.467Z,5.47
2022-12-05T16:35:37.494Z,4.28
2022-12-05T16:38:14.518Z,6.05
2022-12-05T16:40:53.116Z,6.65
2022-12-05T16:43:26.402Z,4.43
2022-12-05T16:45:58.575Z,4.60
2022-12-05T16:48:28.005Z,6.70
2022-12-05T16:51:18.535Z,5.82
2022-12-05T16:53:49.922Z,6.97
2022-12-05T16:56:21.597Z,6.00
2022-12-05T16:58:49.594Z,5.40
2022-12-05T17:01:22.014Z,7.43
2022-12-05T17:03:50.435Z,6.07
2022-12-05T17:06:19.181Z,7.32
2022-12-05T17:08:47.032Z,8.25
2022-12-05T17:11:18.249Z,4.60
2022-12-05T17:13:48.377Z,6.50
2022-12-05T17:16:18.183Z,5.63
2022-12-05T17:18:46.586Z,5.05
2022-12-05T17:21:17.541Z,6.63
2022-12-05T17:23:47.934Z,9.15
2022-12-05T17:26:17.720Z,8.23
2022-12-05T17:28:45.840Z,6.45
2022-12-05T17:31:14.733Z,9.90
2022-12-05T17:33:44.231Z,8.57
2022-12-05T17:36:12.220Z,7.47
2022-12-05T17:38:40.229Z,5.72
2022-12-05T17:41:08.799Z,11.73
2022-12-05T17:43:36.696Z,8.68
2022-12-05T17:46:04.694Z,8.95
2022-12-05T17:48:32.637Z,9.38
2022-12-05T17:51:04.023Z,7.80
2022-12-05T17:53:31.940Z,8.60
2022-12-05T17:55:59.879Z,33.63
2022-12-05T17:58:27.766Z,28.75
2022-12-05T18:00:55.843Z,9.65
2022-12-05T18:03:23.894Z,10.38
2022-12-05T18:05:51.920Z,8.50
2022-12-05T18:08:21.204Z,10.25
2022-12-05T18:10:50.593Z,15.73
2022-12-05T18:13:19.272Z,8.23
2022-12-05T18:15:48.926Z,13.98
2022-12-05T18:18:18.831Z,11.95
2022-12-05T18:20:46.760Z,17.80
2022-12-05T18:23:14.848Z,11.27
2022-12-05T18:25:44.106Z,11.10
2022-12-05T18:28:16.376Z,9.38
2022-12-05T18:30:47.425Z,12.63
2022-12-05T18:33:15.348Z,11.48
2022-12-05T18:35:43.269Z,10.60
2022-12-05T18:38:12.253Z,9.55
2022-12-05T18:40:40.237Z,7.97
2022-12-05T18:43:09.473Z,8.95
2022-12-05T18:45:37.981Z,11.48
2022-12-05T18:50:54.625Z,14.40
2022-12-05T18:53:22.768Z,9.68
2022-12-05T18:56:13.730Z,8.05
2022-12-05T18:58:40.139Z,10.13
2022-12-05T19:01:09.599Z,10.13
2022-12-05T19:03:38.967Z,10.98
2022-12-05T19:06:13.172Z,10.82
2022-12-05T19:08:41.198Z,12.50
2022-12-05T19:11:09.486Z,10.18
2022-12-05T19:13:37.539Z,9.88
2022-12-05T19:16:12.334Z,11.93
2022-12-05T19:18:41.983Z,10.82
2022-12-05T19:21:20.040Z,10.65
2022-12-05T19:26:26.676Z,11.00
2022-12-05T19:28:57.702Z,14.32
2022-12-05T19:31:31.932Z,11.25
2022-12-05T19:34:02.239Z,8.75
2022-12-05T19:36:33.438Z,8.68
2022-12-05T19:39:11.230Z,12.65
2022-12-05T19:41:39.878Z,10.25
2022-12-05T19:44:11.840Z,10.65
2022-12-05T19:46:42.651Z,10.73
2022-12-05T19:49:16.178Z,11.73
2022-12-05T19:51:50.266Z,8.32
2022-12-05T19:54:19.968Z,8.65
2022-12-05T19:57:18.280Z,14.48
2022-12-05T19:59:46.966Z,9.73
2022-12-05T20:02:20.593Z,12.77
2022-12-05T20:04:49.456Z,11.98
2022-12-05T20:07:19.254Z,14.07
2022-12-05T20:09:47.848Z,13.15
2022-12-05T20:12:42.215Z,8.57
2022-12-05T20:15:11.845Z,11.48
2022-12-05T20:17:42.149Z,10.98
2022-12-05T20:20:12.280Z,10.15
2022-12-05T20:22:43.514Z,13.43
2022-12-05T20:25:20.806Z,16.73
2022-12-05T20:27:52.967Z,14.48
2022-12-05T20:30:24.690Z,13.23
2022-12-05T20:33:08.161Z,11.80
2022-12-05T20:35:46.479Z,14.32
2022-12-05T20:38:15.683Z,14.98
2022-12-05T20:40:52.969Z,16.83
2022-12-05T20:43:31.720Z,14.85
2022-12-05T20:46:18.827Z,16.25
2022-12-05T20:48:50.008Z,12.30
2022-12-05T20:51:29.081Z,15.52
2022-12-05T20:53:59.006Z,13.30
2022-12-05T20:56:31.831Z,14.32
2022-12-05T20:59:02.304Z,17.75
2022-12-05T21:01:38.258Z,15.27
2022-12-05T21:04:11.970Z,15.45
2022-12-05T21:06:46.055Z,13.02
2022-12-05T21:09:27.771Z,13.43
2022-12-05T21:11:59.523Z,14.43
2022-12-05T21:14:28.209Z,13.75
2022-12-05T21:17:14.140Z,11.95
2022-12-05T21:19:48.726Z,15.68
2022-12-05T21:22:18.577Z,12.48
2022-12-05T21:24:47.113Z,13.27
2022-12-05T21:28:11.204Z,11.70
2022-12-05T21:30:41.297Z,12.85
2022-12-05T21:36:56.413Z,13.40
2022-12-05T21:39:25.436Z,12.40
2022-12-05T21:41:54.810Z,17.05
2022-12-05T21:45:13.633Z,11.93
2022-12-05T21:47:44.201Z,13.95
2022-12-05T21:50:14.934Z,12.80
2022-12-05T21:52:49.558Z,12.77
2022-12-05T21:58:42.712Z,12.05
2022-12-05T22:01:31.834Z,13.48
2022-12-05T22:04:18.915Z,13.75
2022-12-05T22:06:48.841Z,15.55
2022-12-05T22:09:38.904Z,13.40
2022-12-05T22:12:08.732Z,10.98
2022-12-05T22:14:40.443Z,13.13
2022-12-05T22:17:10.847Z,14.63
2022-12-05T22:19:45.020Z,13.30
2022-12-05T22:22:13.764Z,12.38
2022-12-05T22:24:43.042Z,14.52
2022-12-05T22:27:10.960Z,11.00
2022-12-05T22:29:38.962Z,16.15
2022-12-05T22:32:07.078Z,11.25
2022-12-05T22:34:35.047Z,11.45
2022-12-05T22:37:02.934Z,14.75
2022-12-05T22:39:30.819Z,13.27
2022-12-05T22:42:00.136Z,9.93
2022-12-05T22:44:28.444Z,11.40
2022-12-05T22:46:56.407Z,12.02
2022-12-05T22:49:25.286Z,11.95
2022-12-05T22:51:53.345Z,13.48
2022-12-05T22:54:24.704Z,12.45
2022-12-05T22:56:55.199Z,14.88
2022-12-05T22:59:24.446Z,11.77
2022-12-05T23:01:52.371Z,12.60
2022-12-05T23:04:20.521Z,13.48
2022-12-05T23:06:48.526Z,11.85
2022-12-05T23:09:16.512Z,12.32
2022-12-05T23:11:44.531Z,14.18
2022-12-05T23:14:12.575Z,13.48
2022-12-05T23:16:41.967Z,11.52
2022-12-05T23:19:10.269Z,9.18
2022-12-05T23:21:40.373Z,9.80
2022-12-05T23:24:09.968Z,10.18
2022-12-05T23:26:40.541Z,9.77
2022-12-05T23:29:09.141Z,10.70
2022-12-05T23:31:37.332Z,10.93
2022-12-05T23:34:06.740Z,9.50
2022-12-05T23:36:36.177Z,9.90
2022-12-05T23:39:16.925Z,11.60
2022-12-05T23:41:51.396Z,10.73
2022-12-05T23:44:20.763Z,10.23
2022-12-05T23:46:55.482Z,11.63
2022-12-05T23:49:32.110Z,11.60
2022-12-05T23:52:00.798Z,11.30
2022-12-05T23:54:32.552Z,11.18
2022-12-05T23:57:01.649Z,10.55
2022-12-05T23:59:53.677Z,9.82
